createdAt,value
2022-09-21T00:01:46.635Z,100488.94
2022-09-21T00:04:20.512Z,100486.88
2022-09-21T00:06:53.816Z,100488.75
2022-09-21T00:09:27.433Z,100491.52
2022-09-21T00:12:01.518Z,100488.84
2022-09-21T00:14:38.706Z,100488.09
2022-09-21T00:17:11.877Z,100488.77
2022-09-21T00:19:45.371Z,100482.09
2022-09-21T00:22:18.755Z,100485.13
2022-09-21T00:24:52.654Z,100490.21
2022-09-21T00:27:30.449Z,100488.30
2022-09-21T00:30:06.584Z,100486.89
2022-09-21T00:32:41.064Z,100487.46
2022-09-21T00:35:15.250Z,100489.42
2022-09-21T00:37:52.071Z,100492.95
2022-09-21T00:40:25.514Z,100488.89
2022-09-21T00:43:18.691Z,100490.64
2022-09-21T00:46:00.536Z,100489.92
2022-09-21T00:48:35.500Z,100491.30
2022-09-21T00:51:11.008Z,100491.02
2022-09-21T00:53:44.813Z,100490.23
2022-09-21T00:56:20.725Z,100488.23
2022-09-21T00:58:59.603Z,100491.75
2022-09-21T01:01:33.685Z,100490.78
2022-09-21T01:04:07.538Z,100492.59
2022-09-21T01:06:42.532Z,100494.33
2022-09-21T01:09:16.720Z,100492.42
2022-09-21T01:12:04.929Z,100491.61
2022-09-21T01:15:02.537Z,100495.22
2022-09-21T01:17:44.756Z,100495.35
2022-09-21T01:21:02.070Z,100499.15
2022-09-21T01:24:12.090Z,100499.20
2022-09-21T01:27:28.639Z,100498.33
2022-09-21T01:30:05.355Z,100502.69
2022-09-21T01:32:44.196Z,100503.80
2022-09-21T01:35:22.039Z,100504.73
2022-09-21T01:38:03.911Z,100508.00
2022-09-21T01:40:39.989Z,100513.95
2022-09-21T01:43:20.922Z,100510.72
2022-09-21T01:46:02.367Z,100513.48
2022-09-21T01:48:41.230Z,100515.80
2022-09-21T01:51:15.476Z,100519.40
2022-09-21T01:53:54.047Z,100515.45
2022-09-21T01:56:34.852Z,100519.89
2022-09-21T01:59:12.656Z,100521.83
2022-09-21T02:01:51.997Z,100523.98
2022-09-21T02:04:25.511Z,100524.69
2022-09-21T02:06:58.890Z,100525.22
2022-09-21T02:09:33.111Z,100530.09
2022-09-21T02:12:07.201Z,100532.04
2022-09-21T02:14:41.780Z,100530.63
2022-09-21T02:17:29.837Z,100530.36
2022-09-21T02:20:11.995Z,100532.98
2022-09-21T02:22:59.992Z,100535.26
2022-09-21T02:25:41.864Z,100530.84
2022-09-21T02:28:29.366Z,100532.46
2022-09-21T02:31:14.151Z,100533.45
2022-09-21T02:33:59.177Z,100532.96
2022-09-21T02:36:39.599Z,100534.30
2022-09-21T02:39:17.615Z,100533.62
2022-09-21T02:42:03.320Z,100537.20
2022-09-21T02:44:40.859Z,100536.48
2022-09-21T02:47:20.847Z,100538.82
2022-09-21T02:50:00.397Z,100542.33
2022-09-21T02:52:36.072Z,100546.80
2022-09-21T02:55:10.962Z,100548.13
2022-09-21T02:57:44.761Z,100550.26
2022-09-21T03:00:19.254Z,100551.67
2022-09-21T03:02:55.363Z,100551.60
2022-09-21T03:05:30.272Z,100553.36
2022-09-21T03:08:03.826Z,100548.97
2022-09-21T03:10:40.210Z,100547.89
2022-09-21T03:13:14.162Z,100551.52
2022-09-21T03:15:48.507Z,100549.61
2022-09-21T03:18:22.170Z,100549.65
2022-09-21T03:20:55.920Z,100552.55
2022-09-21T03:23:29.440Z,100552.61
2022-09-21T03:26:02.781Z,100550.48
2022-09-21T03:28:36.550Z,100557.70
2022-09-21T03:31:10.063Z,100561.63
2022-09-21T03:33:43.417Z,100561.31
2022-09-21T03:36:17.125Z,100563.83
2022-09-21T03:38:50.648Z,100563.61
2022-09-21T03:41:24.022Z,100562.31
2022-09-21T03:43:57.824Z,100564.77
2022-09-21T03:46:31.501Z,100564.67
2022-09-21T03:49:05.336Z,100563.27
2022-09-21T03:51:39.811Z,100567.94
2022-09-21T03:54:13.287Z,100570.24
2022-09-21T03:56:46.729Z,100569.14
2022-09-21T03:59:20.899Z,100571.48
2022-09-21T04:01:54.610Z,100573.44
2022-09-21T04:04:28.046Z,100573.38
2022-09-21T04:07:01.633Z,100573.14
2022-09-21T04:09:34.837Z,100576.38
2022-09-21T04:12:08.344Z,100578.50
2022-09-21T04:14:41.982Z,100578.02
2022-09-21T04:17:15.618Z,100577.92
2022-09-21T04:19:49.507Z,100579.72
2022-09-21T04:22:25.303Z,100585.42
2022-09-21T04:24:58.600Z,100590.90
2022-09-21T04:27:32.039Z,100588.12
2022-09-21T04:30:06.486Z,100588.09
2022-09-21T04:32:40.071Z,100589.72
2022-09-21T04:35:13.953Z,100592.77
2022-09-21T04:37:48.080Z,100593.86
2022-09-21T04:40:23.615Z,100593.34
2022-09-21T04:42:57.312Z,100597.59
2022-09-21T04:45:30.576Z,100597.15
2022-09-21T04:48:03.994Z,100602.83
2022-09-21T04:50:39.684Z,100603.60
2022-09-21T04:53:15.094Z,100606.95
2022-09-21T04:55:48.865Z,100603.97
2022-09-21T04:58:24.455Z,100613.77
2022-09-21T05:00:58.475Z,100611.82
2022-09-21T05:03:32.756Z,100616.31
2022-09-21T05:06:06.493Z,100618.48
2022-09-21T05:08:57.455Z,100620.41
2022-09-21T05:11:30.908Z,100621.42
2022-09-21T05:14:04.378Z,100618.86
2022-09-21T05:16:38.416Z,100622.09
2022-09-21T05:19:12.286Z,100621.27
2022-09-21T05:21:46.231Z,100623.36
2022-09-21T05:24:20.241Z,100622.52
2022-09-21T05:26:54.271Z,100624.14
2022-09-21T05:29:28.557Z,100629.52
2022-09-21T05:32:10.355Z,100630.30
2022-09-21T05:34:53.798Z,100638.60
2022-09-21T05:37:50.044Z,100640.62
2022-09-21T05:40:24.747Z,100642.76
2022-09-21T05:42:59.067Z,100643.98
2022-09-21T05:45:33.688Z,100646.67
2022-09-21T05:48:18.556Z,100647.03
2022-09-21T05:51:01.005Z,100652.09
2022-09-21T05:53:47.029Z,100649.25
2022-09-21T05:56:39.606Z,100652.33
2022-09-21T05:59:32.887Z,100657.24
2022-09-21T06:02:26.607Z,100654.80
2022-09-21T06:05:03.277Z,100658.37
2022-09-21T06:07:37.403Z,100656.04
2022-09-21T06:10:13.938Z,100656.77
2022-09-21T06:12:47.689Z,100657.08
2022-09-21T06:15:24.570Z,100662.35
2022-09-21T06:17:59.362Z,100664.65
2022-09-21T06:20:33.390Z,100665.48
2022-09-21T06:23:08.402Z,100666.52
2022-09-21T06:25:42.271Z,100663.92
2022-09-21T06:28:16.093Z,100669.02
2022-09-21T06:30:54.327Z,100669.55
2022-09-21T06:33:27.936Z,100672.56
2022-09-21T06:36:02.137Z,100670.35
2022-09-21T06:38:37.198Z,100672.88
2022-09-21T06:41:10.390Z,100671.27
2022-09-21T06:43:44.016Z,100674.38
2022-09-21T06:46:18.005Z,100679.54
2022-09-21T06:48:52.257Z,100681.73
2022-09-21T06:51:25.754Z,100682.27
2022-09-21T06:54:02.648Z,100679.50
2022-09-21T06:56:35.988Z,100680.98
2022-09-21T06:59:09.812Z,100679.67
2022-09-21T07:01:43.385Z,100683.09
2022-09-21T07:04:17.922Z,100684.38
2022-09-21T07:06:53.324Z,100688.48
2022-09-21T07:12:20.564Z,100690.41
2022-09-21T07:14:54.281Z,100689.65
2022-09-21T07:17:27.743Z,100690.89
2022-09-21T07:20:01.112Z,100692.99
2022-09-21T07:22:34.967Z,100695.45
2022-09-21T07:25:10.622Z,100697.91
2022-09-21T07:27:55.559Z,100701.17
2022-09-21T07:30:29.726Z,100698.42
2022-09-21T07:33:03.318Z,100697.34
2022-09-21T07:35:37.422Z,100698.17
2022-09-21T07:38:14.519Z,100698.06
2022-09-21T07:40:48.148Z,100697.13
2022-09-21T07:43:21.732Z,100689.89
2022-09-21T07:45:58.438Z,100687.38
2022-09-21T07:48:32.479Z,100683.51
2022-09-21T07:51:07.505Z,100687.86
2022-09-21T07:53:45.931Z,100689.88
2022-09-21T07:56:20.489Z,100687.48
2022-09-21T07:59:08.957Z,100695.14
2022-09-21T08:01:43.784Z,100699.95
2022-09-21T08:04:17.273Z,100701.54
2022-09-21T08:06:50.819Z,100703.42
2022-09-21T08:09:26.900Z,100706.42
2022-09-21T08:12:11.536Z,100709.25
2022-09-21T08:14:44.975Z,100706.69
2022-09-21T08:17:21.527Z,100707.15
2022-09-21T08:19:55.661Z,100707.98
2022-09-21T08:22:32.090Z,100711.73
2022-09-21T08:25:06.251Z,100713.03
2022-09-21T08:27:40.901Z,100716.41
2022-09-21T08:30:15.460Z,100723.02
2022-09-21T08:32:51.856Z,100719.05
2022-09-21T08:35:25.763Z,100718.96
2022-09-21T08:38:19.391Z,100721.34
2022-09-21T08:40:53.733Z,100718.44
2022-09-21T08:43:37.723Z,100727.44
2022-09-21T08:46:15.611Z,100727.88
2022-09-21T08:48:52.720Z,100725.23
2022-09-21T08:51:30.070Z,100729.13
2022-09-21T08:54:17.123Z,100728.26
2022-09-21T08:57:04.914Z,100730.80
2022-09-21T08:59:43.616Z,100732.95
2022-09-21T09:02:40.492Z,100737.09
2022-09-21T09:05:35.094Z,100735.06
2022-09-21T09:08:58.016Z,100735.14
2022-09-21T09:11:56.745Z,100737.82
2022-09-21T09:15:21.976Z,100737.89
2022-09-21T09:18:02.288Z,100739.55
2022-09-21T09:20:51.370Z,100736.60
2022-09-21T09:23:43.487Z,100736.50
2022-09-21T09:26:24.051Z,100733.17
2022-09-21T09:29:00.932Z,100736.09
2022-09-21T09:31:36.369Z,100736.59
2022-09-21T09:34:17.861Z,100737.54
2022-09-21T09:36:59.619Z,100743.58
2022-09-21T09:39:45.629Z,100743.05
2022-09-21T09:42:40.133Z,100740.25
2022-09-21T09:45:33.795Z,100742.92
2022-09-21T09:48:18.970Z,100738.43
2022-09-21T09:50:56.171Z,100735.96
2022-09-21T09:53:30.569Z,100736.80
2022-09-21T09:56:04.225Z,100731.80
2022-09-21T09:58:46.712Z,100732.84
2022-09-21T10:01:43.720Z,100736.38
2022-09-21T10:04:21.216Z,100734.55
2022-09-21T10:06:55.359Z,100737.47
2022-09-21T10:09:31.350Z,100730.44
2022-09-21T10:12:21.047Z,100725.84
2022-09-21T10:15:01.957Z,100728.19
2022-09-21T10:18:06.405Z,100724.09
2022-09-21T10:20:39.917Z,100721.58
2022-09-21T10:23:16.124Z,100716.51
2022-09-21T10:25:58.813Z,100715.54
2022-09-21T10:28:33.131Z,100715.92
2022-09-21T10:31:22.676Z,100714.18
2022-09-21T10:34:08.088Z,100709.71
2022-09-21T10:36:43.421Z,100711.80
2022-09-21T10:39:25.287Z,100708.98
2022-09-21T10:42:03.462Z,100713.11
2022-09-21T10:44:43.608Z,100715.17
2022-09-21T10:47:27.272Z,100721.19
2022-09-21T10:50:02.983Z,100721.85
2022-09-21T10:52:40.409Z,100718.09
2022-09-21T10:55:22.489Z,100723.70
2022-09-21T10:57:56.963Z,100717.94
2022-09-21T11:00:45.407Z,100715.17
2022-09-21T11:03:49.855Z,100713.71
2022-09-21T11:06:28.987Z,100710.52
2022-09-21T11:09:09.080Z,100703.61
2022-09-21T11:11:53.510Z,100702.58
2022-09-21T11:14:43.259Z,100700.36
2022-09-21T11:17:43.447Z,100703.50
2022-09-21T11:20:26.884Z,100701.08
2022-09-21T11:23:07.029Z,100704.51
2022-09-21T11:25:50.169Z,100700.13
2022-09-21T11:28:28.532Z,100700.17
2022-09-21T11:31:16.988Z,100699.78
2022-09-21T11:34:16.627Z,100700.69
2022-09-21T11:37:06.592Z,100702.98
2022-09-21T11:39:51.220Z,100703.31
2022-09-21T11:42:41.638Z,100698.00
2022-09-21T11:45:34.099Z,100696.31
2022-09-21T11:48:21.812Z,100692.05
2022-09-21T11:51:10.522Z,100695.23
2022-09-21T11:54:04.141Z,100689.31
2022-09-21T11:56:47.364Z,100686.52
2022-09-21T11:59:41.032Z,100686.21
2022-09-21T12:02:37.923Z,100691.23
2022-09-21T12:05:21.702Z,100686.46
2022-09-21T12:08:22.944Z,100686.38
2022-09-21T12:11:01.865Z,100689.50
2022-09-21T12:13:41.455Z,100685.82
2022-09-21T12:16:24.119Z,100688.81
2022-09-21T12:19:07.390Z,100685.22
2022-09-21T12:21:46.121Z,100684.34
2022-09-21T12:24:22.279Z,100673.30
2022-09-21T12:26:58.880Z,100671.33
2022-09-21T12:29:38.487Z,100670.09
2022-09-21T12:32:23.595Z,100664.32
2022-09-21T12:35:02.462Z,100663.90
2022-09-21T12:37:40.429Z,100665.69
2022-09-21T12:40:21.758Z,100663.11
2022-09-21T12:43:02.595Z,100663.95
2022-09-21T12:45:38.935Z,100662.83
2022-09-21T12:48:22.974Z,100664.86
2022-09-21T12:51:05.834Z,100662.34
2022-09-21T12:53:42.247Z,100667.42
2022-09-21T12:56:22.891Z,100674.17
2022-09-21T12:59:10.412Z,100676.99
2022-09-21T13:01:53.403Z,100679.86
2022-09-21T13:04:43.594Z,100693.08
2022-09-21T13:07:53.357Z,100689.64
2022-09-21T13:10:40.705Z,100693.54
2022-09-21T13:13:24.878Z,100694.51
2022-09-21T13:16:00.020Z,100695.05
2022-09-21T13:18:36.804Z,100703.54
2022-09-21T13:21:22.562Z,100706.44
2022-09-21T13:24:02.625Z,100706.20
2022-09-21T13:26:43.851Z,100705.45
2022-09-21T13:29:49.011Z,100703.65
2022-09-21T13:32:47.473Z,100704.14
2022-09-21T13:35:53.308Z,100702.30
2022-09-21T13:38:34.476Z,100697.42
2022-09-21T13:41:51.695Z,100695.88
2022-09-21T13:44:41.703Z,100692.96
2022-09-21T13:47:15.447Z,100696.29
2022-09-21T13:49:56.025Z,100694.10
2022-09-21T13:52:39.766Z,100693.36
2022-09-21T13:55:29.798Z,100691.02
2022-09-21T13:58:06.835Z,100690.30
2022-09-21T14:00:45.232Z,100689.75
2022-09-21T14:03:31.294Z,100689.34
2022-09-21T14:06:10.713Z,100689.55
2022-09-21T14:08:53.538Z,100688.46
2022-09-21T14:11:34.015Z,100686.24
2022-09-21T14:14:21.332Z,100685.89
2022-09-21T14:17:02.749Z,100681.95
2022-09-21T14:20:30.786Z,100679.02
2022-09-21T14:23:31.455Z,100678.15
2022-09-21T14:26:20.875Z,100678.23
2022-09-21T14:28:55.498Z,100678.45
2022-09-21T14:31:34.731Z,100674.41
2022-09-21T14:34:14.421Z,100676.27
2022-09-21T14:36:51.677Z,100677.38
2022-09-21T14:39:32.475Z,100677.73
2022-09-21T14:42:19.842Z,100679.48
2022-09-21T14:44:53.755Z,100678.85
2022-09-21T14:47:55.925Z,100678.38
2022-09-21T14:50:36.421Z,100672.23
2022-09-21T14:53:57.067Z,100674.84
2022-09-21T14:56:44.860Z,100671.87
2022-09-21T14:59:32.622Z,100672.66
2022-09-21T15:02:15.816Z,100666.39
2022-09-21T15:05:06.210Z,100670.58
2022-09-21T15:08:24.025Z,100673.55
2022-09-21T15:11:09.104Z,100679.73
2022-09-21T15:14:17.356Z,100683.03
2022-09-21T15:16:51.380Z,100687.90
2022-09-21T15:19:28.982Z,100685.67
2022-09-21T15:22:19.065Z,100685.86
2022-09-21T15:24:57.492Z,100687.23
2022-09-21T15:27:33.836Z,100689.35
2022-09-21T15:30:20.752Z,100691.13
2022-09-21T15:32:58.114Z,100692.73
2022-09-21T15:35:33.696Z,100699.02
2022-09-21T15:38:20.916Z,100705.35
2022-09-21T15:40:54.532Z,100709.33
2022-09-21T15:43:28.170Z,100708.84
2022-09-21T15:46:03.890Z,100713.23
2022-09-21T15:48:42.567Z,100713.73
2022-09-21T15:51:25.099Z,100716.82
2022-09-21T15:54:05.406Z,100716.94
2022-09-21T15:56:44.259Z,100715.88
2022-09-21T15:59:21.728Z,100719.66
2022-09-21T16:01:59.182Z,100727.36
2022-09-21T16:04:34.242Z,100730.91
2022-09-21T16:07:26.407Z,100730.11
2022-09-21T16:09:59.719Z,100735.43
2022-09-21T16:12:42.054Z,100736.90
2022-09-21T16:15:29.519Z,100736.73
2022-09-21T16:18:05.715Z,100737.42
2022-09-21T16:20:46.061Z,100734.61
2022-09-21T16:23:23.771Z,100736.29
2022-09-21T16:26:02.731Z,100740.05
2022-09-21T16:28:42.541Z,100735.49
2022-09-21T16:31:39.512Z,100732.90
2022-09-21T16:34:33.487Z,100739.31
2022-09-21T16:37:28.531Z,100744.00
2022-09-21T16:40:02.683Z,100746.61
2022-09-21T16:42:36.657Z,100750.15
2022-09-21T16:45:31.725Z,100750.34
2022-09-21T16:48:08.319Z,100748.55
2022-09-21T16:50:43.579Z,100749.83
2022-09-21T16:53:19.702Z,100756.23
2022-09-21T16:55:54.375Z,100756.13
2022-09-21T16:58:28.015Z,100758.66
2022-09-21T17:01:03.207Z,100760.77
2022-09-21T17:03:36.439Z,100759.77
2022-09-21T17:06:15.761Z,100760.20
2022-09-21T17:08:50.652Z,100757.08
2022-09-21T17:11:25.168Z,100759.33
2022-09-21T17:14:01.734Z,100757.64
2022-09-21T17:16:35.171Z,100760.58
2022-09-21T17:19:10.542Z,100763.50
2022-09-21T17:21:45.831Z,100762.98
2022-09-21T17:24:45.850Z,100762.26
2022-09-21T17:27:14.069Z,100769.25
2022-09-21T17:29:48.258Z,100775.25
2022-09-21T17:32:23.528Z,100778.21
2022-09-21T17:35:00.422Z,100777.98
2022-09-21T17:37:34.221Z,100780.93
2022-09-21T17:40:13.797Z,100776.73
2022-09-21T17:42:48.757Z,100780.11
2022-09-21T17:45:28.566Z,100780.69
2022-09-21T17:48:03.598Z,100784.17
2022-09-21T17:50:37.897Z,100788.38
2022-09-21T17:53:30.520Z,100788.84
2022-09-21T17:56:20.888Z,100791.73
2022-09-21T17:59:29.641Z,100792.38
2022-09-21T18:02:01.881Z,100795.93
2022-09-21T18:04:37.763Z,100794.05
2022-09-21T18:07:12.611Z,100795.35
2022-09-21T18:09:48.384Z,100794.14
2022-09-21T18:12:50.770Z,100793.13
2022-09-21T18:15:33.622Z,100792.44
2022-09-21T18:18:18.288Z,100793.09
2022-09-21T18:21:02.607Z,100792.64
2022-09-21T18:23:48.603Z,100795.88
2022-09-21T18:26:23.786Z,100800.61
2022-09-21T18:28:58.770Z,100800.27
2022-09-21T18:31:51.712Z,100804.98
2022-09-21T18:34:43.891Z,100812.06
2022-09-21T18:37:25.853Z,100814.95
2022-09-21T18:40:10.183Z,100813.39
2022-09-21T18:42:54.400Z,100807.73
2022-09-21T18:45:33.464Z,100812.10
2022-09-21T18:48:23.017Z,100814.59
2022-09-21T18:51:07.288Z,100814.10
2022-09-21T18:53:48.130Z,100811.34
2022-09-21T18:56:25.755Z,100810.15
2022-09-21T18:59:01.302Z,100812.30
2022-09-21T19:01:36.542Z,100808.84
2022-09-21T19:04:11.941Z,100811.34
2022-09-21T19:06:53.107Z,100808.57
2022-09-21T19:09:41.958Z,100811.09
2022-09-21T19:12:26.467Z,100812.25
2022-09-21T19:15:17.376Z,100810.28
2022-09-21T19:18:05.940Z,100813.73
2022-09-21T19:20:57.650Z,100820.25
2022-09-21T19:23:45.951Z,100816.58
2022-09-21T19:26:26.025Z,100817.03
2022-09-21T19:29:28.316Z,100815.83
2022-09-21T19:32:03.758Z,100815.48
2022-09-21T19:34:40.296Z,100814.66
2022-09-21T19:37:14.227Z,100813.75
2022-09-21T19:39:52.260Z,100811.89
2022-09-21T19:42:35.203Z,100808.29
2022-09-21T19:45:23.927Z,100806.20
2022-09-21T19:48:05.299Z,100809.69
2022-09-21T19:50:47.160Z,100804.08
2022-09-21T19:53:38.895Z,100805.95
2022-09-21T19:56:34.608Z,100806.37
2022-09-21T19:59:27.808Z,100806.11
2022-09-21T20:02:05.091Z,100805.83
2022-09-21T20:04:46.388Z,100806.52
2022-09-21T20:07:29.891Z,100805.81
2022-09-21T20:10:17.225Z,100803.59
2022-09-21T20:12:59.840Z,100802.66
2022-09-21T20:15:41.405Z,100804.11
2022-09-21T20:18:24.155Z,100806.89
2022-09-21T20:20:58.909Z,100811.77
2022-09-21T20:23:36.601Z,100812.32
2022-09-21T20:26:24.233Z,100814.12
2022-09-21T20:28:58.757Z,100818.20
2022-09-21T20:31:32.247Z,100813.49
2022-09-21T20:34:06.342Z,100813.42
2022-09-21T20:36:40.202Z,100814.50
2022-09-21T20:39:15.393Z,100811.60
2022-09-21T20:41:49.254Z,100813.44
2022-09-21T20:44:22.855Z,100814.50
2022-09-21T20:46:56.234Z,100818.14
2022-09-21T20:49:29.570Z,100815.84
2022-09-21T20:52:03.944Z,100811.05
2022-09-21T20:54:37.983Z,100811.59
2022-09-21T20:57:12.252Z,100808.23
2022-09-21T20:59:46.170Z,100808.73
2022-09-21T21:02:19.635Z,100804.88
2022-09-21T21:04:53.194Z,100807.89
2022-09-21T21:07:30.404Z,100810.69
2022-09-21T21:10:05.222Z,100808.66
2022-09-21T21:12:39.211Z,100811.52
2022-09-21T21:15:22.817Z,100809.64
2022-09-21T21:17:56.545Z,100810.93
2022-09-21T21:20:31.309Z,100809.13
2022-09-21T21:23:08.026Z,100809.20
2022-09-21T21:25:42.234Z,100807.29
2022-09-21T21:28:15.336Z,100807.20
2022-09-21T21:30:53.488Z,100802.55
2022-09-21T21:33:26.878Z,100804.31
2022-09-21T21:36:08.461Z,100806.54
2022-09-21T21:38:43.626Z,100801.96
2022-09-21T21:41:17.774Z,100801.88
2022-09-21T21:43:51.531Z,100804.10
2022-09-21T21:46:25.228Z,100802.86
2022-09-21T21:48:58.861Z,100806.30
2022-09-21T21:51:32.812Z,100812.52
2022-09-21T21:54:06.579Z,100815.46
2022-09-21T21:56:40.242Z,100816.04
2022-09-21T21:59:17.568Z,100813.27
2022-09-21T22:01:51.794Z,100816.33
2022-09-21T22:04:27.821Z,100813.52
2022-09-21T22:07:01.633Z,100815.69
2022-09-21T22:09:34.860Z,100813.23
2022-09-21T22:12:08.733Z,100815.89
2022-09-21T22:14:41.803Z,100814.53
2022-09-21T22:17:15.847Z,100816.36
2022-09-21T22:19:49.864Z,100813.05
2022-09-21T22:22:23.063Z,100813.33
2022-09-21T22:24:56.877Z,100816.90
2022-09-21T22:27:30.343Z,100816.86
2022-09-21T22:30:03.696Z,100816.25
2022-09-21T22:32:37.411Z,100812.34
2022-09-21T22:35:11.866Z,100810.71
2022-09-21T22:37:45.126Z,100813.05
2022-09-21T22:40:18.629Z,100813.57
2022-09-21T22:42:52.571Z,100813.73
2022-09-21T22:45:26.645Z,100818.17
2022-09-21T22:47:59.915Z,100821.28
2022-09-21T22:50:33.683Z,100818.79
2022-09-21T22:53:10.737Z,100816.73
2022-09-21T22:55:44.933Z,100818.58
2022-09-21T22:58:18.727Z,100815.16
2022-09-21T23:00:52.684Z,100816.89
2022-09-21T23:03:26.336Z,100813.73
2022-09-21T23:06:01.725Z,100815.34
2022-09-21T23:08:35.931Z,100817.01
2022-09-21T23:11:14.271Z,100816.04
2022-09-21T23:13:48.230Z,100816.91
2022-09-21T23:16:23.057Z,100812.39
2022-09-21T23:18:58.172Z,100819.27
2022-09-21T23:21:33.296Z,100821.88
2022-09-21T23:24:07.192Z,100819.84
2022-09-21T23:26:41.046Z,100819.88
2022-09-21T23:29:16.705Z,100820.70
2022-09-21T23:31:50.063Z,100821.08
2022-09-21T23:34:23.700Z,100822.54
2022-09-21T23:36:57.053Z,100819.91
2022-09-21T23:39:30.733Z,100824.20
2022-09-21T23:42:03.901Z,100815.77
2022-09-21T23:44:37.555Z,100814.55
2022-09-21T23:47:10.903Z,100816.28
2022-09-21T23:49:44.233Z,100817.58
2022-09-21T23:52:18.489Z,100815.41
2022-09-21T23:54:51.447Z,100818.50
2022-09-21T23:57:25.508Z,100815.46
2022-09-21T23:59:58.898Z,100812.27
